Terminal Aerodrome Forecast
Issued by NWS

Current Version | Previous Version | Graphics & Text | Print | Product List | Glossary On
Versions: 1 2 3 4 5 6 7 8 9 10 11 12 13 14 15 16 17 18 19 20
000
FTUS41 KILN 201700
TAFLUK
TAF
KLUK 201730Z 2018/2118 05005KT P6SM BKN120
     FM210100 05006KT P6SM VCSH BKN040
     FM210600 02006KT P6SM VCSH OVC025
     FM211400 35008KT P6SM BKN035=

USA.gov is the U.S. government's official web portal to all federal, state and local government web resources and services.